createdAt,value
2018-12-06T00:00:36.036Z,6.78
2018-12-06T00:01:15.227Z,11.20
2018-12-06T00:01:53.522Z,6.00
2018-12-06T00:02:31.385Z,4.12
2018-12-06T00:03:09.287Z,8.75
2018-12-06T00:03:48.171Z,12.47
2018-12-06T00:04:26.129Z,17.40
2018-12-06T00:05:04.049Z,7.55
2018-12-06T00:05:43.868Z,6.08
2018-12-06T00:06:22.083Z,7.70
2018-12-06T00:07:00.013Z,6.28
2018-12-06T00:07:37.937Z,10.95
2018-12-06T00:08:20.968Z,4.78
2018-12-06T00:08:58.882Z,9.50
2018-12-06T00:09:36.794Z,8.35
2018-12-06T00:10:14.658Z,5.37
2018-12-06T00:10:53.745Z,6.75
2018-12-06T00:11:33.372Z,6.22
2018-12-06T00:12:11.372Z,6.47
2018-12-06T00:12:49.199Z,8.78
2018-12-06T00:13:28.241Z,8.68
2018-12-06T00:14:06.126Z,9.15
2018-12-06T00:14:45.294Z,8.63
2018-12-06T00:15:29.683Z,3.90
2018-12-06T00:16:07.644Z,9.63
2018-12-06T00:16:45.712Z,5.45
2018-12-06T00:17:24.386Z,4.78
2018-12-06T00:18:02.307Z,6.35
2018-12-06T00:18:41.863Z,9.70
2018-12-06T00:19:20.474Z,4.50
2018-12-06T00:19:58.323Z,6.47
2018-12-06T00:20:36.261Z,4.50
2018-12-06T00:21:14.099Z,7.55
2018-12-06T00:21:53.295Z,7.97
2018-12-06T00:22:31.724Z,7.75
2018-12-06T00:23:12.051Z,6.70
2018-12-06T00:23:50.258Z,7.12
2018-12-06T00:24:31.386Z,10.23
2018-12-06T00:25:09.394Z,7.28
2018-12-06T00:25:47.434Z,11.53
2018-12-06T00:26:26.461Z,6.40
2018-12-06T00:27:04.505Z,7.00
2018-12-06T00:27:43.268Z,8.95
2018-12-06T00:28:21.194Z,7.47
2018-12-06T00:28:59.094Z,8.48
2018-12-06T00:29:36.927Z,7.50
2018-12-06T00:30:23.777Z,7.47
2018-12-06T00:31:01.821Z,7.62
2018-12-06T00:31:41.287Z,7.35
2018-12-06T00:32:19.936Z,7.28
2018-12-06T00:32:57.915Z,7.65
2018-12-06T00:33:36.373Z,9.15
2018-12-06T00:34:14.272Z,11.28
2018-12-06T00:34:53.204Z,5.35
2018-12-06T00:35:31.054Z,12.50
2018-12-06T00:36:09.399Z,7.40
2018-12-06T00:36:48.824Z,11.60
2018-12-06T00:37:26.911Z,6.80
2018-12-06T00:38:04.863Z,7.47
2018-12-06T00:38:42.748Z,9.80
2018-12-06T00:39:20.650Z,6.42
2018-12-06T00:39:58.482Z,6.40
2018-12-06T00:40:37.505Z,7.07
2018-12-06T00:41:15.419Z,12.78
2018-12-06T00:41:53.319Z,8.48
2018-12-06T00:42:31.331Z,6.83
2018-12-06T00:43:09.281Z,6.20
2018-12-06T00:43:47.140Z,8.70
2018-12-06T00:44:25.057Z,6.75
2018-12-06T00:45:07.751Z,10.80
2018-12-06T00:45:46.403Z,7.62
2018-12-06T00:46:24.517Z,7.45
2018-12-06T00:47:02.476Z,8.48
2018-12-06T00:47:40.322Z,13.13
2018-12-06T00:48:19.197Z,5.70
2018-12-06T00:48:57.357Z,12.63
2018-12-06T00:49:35.610Z,7.80
2018-12-06T00:50:14.040Z,7.95
2018-12-06T00:50:51.919Z,6.20
2018-12-06T00:51:30.447Z,10.20
2018-12-06T00:52:08.923Z,7.33
2018-12-06T00:52:47.983Z,6.65
2018-12-06T00:53:26.496Z,8.08
2018-12-06T00:54:05.606Z,5.20
2018-12-06T00:54:43.569Z,7.08
2018-12-06T00:55:21.543Z,12.03
2018-12-06T00:55:59.481Z,10.35
2018-12-06T00:56:37.392Z,7.97
2018-12-06T00:57:15.211Z,6.30
2018-12-06T00:57:54.683Z,4.33
2018-12-06T00:58:32.487Z,7.42
2018-12-06T00:59:10.443Z,6.65
2018-12-06T00:59:48.421Z,4.85
2018-12-06T01:00:27.393Z,12.20
2018-12-06T01:01:06.171Z,7.90
2018-12-06T01:01:44.139Z,8.45
2018-12-06T01:02:23.492Z,11.68
2018-12-06T01:03:01.485Z,6.10
2018-12-06T01:03:39.509Z,5.10
2018-12-06T01:04:17.427Z,7.25
2018-12-06T01:04:55.433Z,5.70
2018-12-06T01:05:33.333Z,8.65
2018-12-06T01:06:11.228Z,7.55
2018-12-06T01:06:50.397Z,6.60
2018-12-06T01:07:28.330Z,6.80
2018-12-06T01:08:07.363Z,10.28
2018-12-06T01:08:45.343Z,9.05
2018-12-06T01:09:24.092Z,10.95
2018-12-06T01:10:02.025Z,11.28
2018-12-06T01:10:41.181Z,7.67
2018-12-06T01:11:19.727Z,10.58
2018-12-06T01:11:57.656Z,9.68
2018-12-06T01:12:36.600Z,8.05
2018-12-06T01:13:14.668Z,9.35
2018-12-06T01:13:52.585Z,10.55
2018-12-06T01:14:34.980Z,6.45
2018-12-06T01:15:13.430Z,15.13
2018-12-06T01:15:51.301Z,6.65
2018-12-06T01:16:30.683Z,5.45
2018-12-06T01:17:09.438Z,6.08
2018-12-06T01:17:47.345Z,5.35
2018-12-06T01:18:25.314Z,6.28
2018-12-06T01:19:03.223Z,8.95
2018-12-06T01:19:41.565Z,6.80
2018-12-06T01:20:19.475Z,9.35
2018-12-06T01:20:57.648Z,9.63
2018-12-06T01:21:35.587Z,11.00
2018-12-06T01:22:14.315Z,5.70
2018-12-06T01:22:52.182Z,14.53
2018-12-06T01:23:30.060Z,12.18
2018-12-06T01:24:09.804Z,11.40
2018-12-06T01:24:47.672Z,10.55
2018-12-06T01:25:25.504Z,8.25
2018-12-06T01:26:03.361Z,9.45
2018-12-06T01:26:41.338Z,8.73
2018-12-06T01:27:19.256Z,15.40
2018-12-06T01:27:57.309Z,10.23
2018-12-06T01:28:36.697Z,9.43
2018-12-06T01:29:14.585Z,9.70
2018-12-06T01:29:52.545Z,10.50
2018-12-06T01:30:30.478Z,7.90
2018-12-06T01:31:08.339Z,10.18
2018-12-06T01:31:46.275Z,10.13
2018-12-06T01:32:24.959Z,11.53
2018-12-06T01:33:05.773Z,9.98
2018-12-06T01:33:43.664Z,13.35
2018-12-06T01:34:23.063Z,7.45
2018-12-06T01:35:02.809Z,12.45
2018-12-06T01:35:40.697Z,13.93
2018-12-06T01:36:18.603Z,9.15
2018-12-06T01:36:57.773Z,10.68
2018-12-06T01:37:35.687Z,10.85
2018-12-06T01:38:15.192Z,12.20
2018-12-06T01:38:53.866Z,10.38
2018-12-06T01:39:32.467Z,15.18
2018-12-06T01:40:10.449Z,11.65
2018-12-06T01:40:48.504Z,10.72
2018-12-06T01:41:27.664Z,14.78
2018-12-06T01:42:05.623Z,10.08
2018-12-06T01:42:43.469Z,12.88
2018-12-06T01:43:21.466Z,12.47
2018-12-06T01:43:59.436Z,10.40
2018-12-06T01:44:37.370Z,17.40
2018-12-06T01:45:15.198Z,14.47
2018-12-06T01:45:54.586Z,10.05
2018-12-06T01:46:33.474Z,11.63
2018-12-06T01:47:11.425Z,11.60
2018-12-06T01:47:49.331Z,10.60
2018-12-06T01:48:28.165Z,11.25
2018-12-06T01:49:06.098Z,15.45
2018-12-06T01:49:44.569Z,17.12
2018-12-06T01:50:23.700Z,17.12
2018-12-06T01:51:01.536Z,11.83
2018-12-06T01:51:39.475Z,11.80
2018-12-06T01:52:17.314Z,13.10
2018-12-06T01:52:55.360Z,14.93
2018-12-06T01:53:33.315Z,11.85
2018-12-06T01:54:11.245Z,13.78
2018-12-06T01:54:50.718Z,14.47
2018-12-06T01:55:28.561Z,15.65
2018-12-06T01:56:07.206Z,17.95
2018-12-06T01:56:45.057Z,16.12
2018-12-06T01:57:23.035Z,17.65
2018-12-06T01:58:00.994Z,12.15
2018-12-06T01:58:38.929Z,13.83
2018-12-06T01:59:16.896Z,16.42
2018-12-06T01:59:54.865Z,21.60
2018-12-06T02:00:32.693Z,19.23
2018-12-06T02:01:10.624Z,14.58
2018-12-06T02:01:48.592Z,19.75
2018-12-06T02:02:26.440Z,15.53
2018-12-06T02:03:05.517Z,18.85
2018-12-06T02:03:43.460Z,20.70
2018-12-06T02:04:21.375Z,16.80
2018-12-06T02:04:59.254Z,17.90
2018-12-06T02:05:38.555Z,16.65
2018-12-06T02:06:16.542Z,16.10
2018-12-06T02:06:54.432Z,16.67
2018-12-06T02:07:32.611Z,14.83
2018-12-06T02:08:10.509Z,23.22
2018-12-06T02:08:48.361Z,16.12
2018-12-06T02:09:26.245Z,13.70
2018-12-06T02:10:05.296Z,26.75
2018-12-06T02:10:43.227Z,19.65
2018-12-06T02:11:22.816Z,21.52
2018-12-06T02:12:00.702Z,18.60
2018-12-06T02:12:38.673Z,16.20
2018-12-06T02:13:16.609Z,17.55
2018-12-06T02:13:55.259Z,19.07
2018-12-06T02:14:33.127Z,16.70
2018-12-06T02:15:11.911Z,20.45
2018-12-06T02:15:50.236Z,18.05
2018-12-06T02:16:31.076Z,21.70
2018-12-06T02:17:08.992Z,16.57
2018-12-06T02:17:47.808Z,16.15
2018-12-06T02:18:25.844Z,15.98
2018-12-06T02:19:03.769Z,17.48
2018-12-06T02:19:41.591Z,14.13
2018-12-06T02:20:20.432Z,12.78
2018-12-06T02:20:58.285Z,18.98
2018-12-06T02:21:36.252Z,15.35
2018-12-06T02:22:15.388Z,17.85
2018-12-06T02:22:53.314Z,17.40
2018-12-06T02:23:32.174Z,17.37
2018-12-06T02:24:10.093Z,18.67
2018-12-06T02:24:49.610Z,19.02
2018-12-06T02:25:27.488Z,15.05
2018-12-06T02:26:05.411Z,20.65
2018-12-06T02:26:44.664Z,12.90
2018-12-06T02:27:24.290Z,14.05
2018-12-06T02:28:02.347Z,16.57
2018-12-06T02:28:41.681Z,14.33
2018-12-06T02:29:20.900Z,19.55
2018-12-06T02:29:58.879Z,13.95
2018-12-06T02:30:36.918Z,16.33
2018-12-06T02:31:14.806Z,16.30
2018-12-06T02:31:52.792Z,16.30
2018-12-06T02:32:30.737Z,18.27
2018-12-06T02:33:08.856Z,15.90
2018-12-06T02:33:46.776Z,16.35
2018-12-06T02:34:24.647Z,11.70
2018-12-06T02:35:02.527Z,18.30
2018-12-06T02:35:40.478Z,13.05
2018-12-06T02:36:19.000Z,12.70
2018-12-06T02:36:57.082Z,14.68
2018-12-06T02:37:36.005Z,14.87
2018-12-06T02:38:15.122Z,12.95
2018-12-06T02:38:54.139Z,11.15
2018-12-06T02:39:32.054Z,16.87
2018-12-06T02:40:10.527Z,12.10
2018-12-06T02:40:48.760Z,14.05
2018-12-06T02:41:26.599Z,10.23
2018-12-06T02:42:05.500Z,10.70
2018-12-06T02:42:44.413Z,9.65
2018-12-06T02:43:22.399Z,11.35
2018-12-06T02:44:00.307Z,10.20
2018-12-06T02:44:38.233Z,10.17
2018-12-06T02:45:16.263Z,9.85
2018-12-06T02:45:54.077Z,14.55
2018-12-06T02:46:33.007Z,10.63
2018-12-06T02:47:10.925Z,12.82
2018-12-06T02:47:48.798Z,11.25
2018-12-06T02:48:26.801Z,15.25
2018-12-06T02:49:04.776Z,16.75
2018-12-06T02:49:42.862Z,11.57
2018-12-06T02:50:21.102Z,18.40
2018-12-06T02:50:59.262Z,14.98
2018-12-06T02:51:37.249Z,11.33
2018-12-06T02:52:15.108Z,14.35
2018-12-06T02:52:53.069Z,19.07
2018-12-06T02:53:31.034Z,12.88
2018-12-06T02:54:08.862Z,16.62
2018-12-06T02:54:47.852Z,15.18
2018-12-06T02:55:26.524Z,16.02
2018-12-06T02:56:04.913Z,18.57
2018-12-06T02:56:42.820Z,17.40
2018-12-06T02:57:20.875Z,15.30
2018-12-06T02:57:58.761Z,14.55
2018-12-06T02:58:36.734Z,16.20
2018-12-06T02:59:15.938Z,15.03
2018-12-06T02:59:54.020Z,13.45
2018-12-06T03:00:32.048Z,14.68
2018-12-06T03:01:10.089Z,17.55
2018-12-06T03:01:48.107Z,13.60
2018-12-06T03:02:25.985Z,16.12
2018-12-06T03:03:03.800Z,13.72
2018-12-06T03:03:42.295Z,19.57
2018-12-06T03:04:20.195Z,12.35
2018-12-06T03:04:58.088Z,12.90
2018-12-06T03:05:36.005Z,18.20
2018-12-06T03:06:15.400Z,15.48
2018-12-06T03:06:53.342Z,12.45
2018-12-06T03:07:32.136Z,16.05
2018-12-06T03:08:10.304Z,13.43
2018-12-06T03:08:48.462Z,17.52
2018-12-06T03:09:26.719Z,16.82
2018-12-06T03:10:09.275Z,15.18
2018-12-06T03:10:47.255Z,14.80
2018-12-06T03:11:25.246Z,19.80
2018-12-06T03:12:04.445Z,24.63
2018-12-06T03:12:42.404Z,19.45
2018-12-06T03:13:20.313Z,22.52
2018-12-06T03:13:58.301Z,21.60
2018-12-06T03:14:36.298Z,23.03
2018-12-06T03:15:14.292Z,22.60
2018-12-06T03:15:52.098Z,21.15
2018-12-06T03:16:32.281Z,18.20
2018-12-06T03:17:11.254Z,19.00
2018-12-06T03:17:49.350Z,16.97
2018-12-06T03:18:27.315Z,20.70
2018-12-06T03:19:05.328Z,19.90
2018-12-06T03:19:43.177Z,21.48
2018-12-06T03:20:21.207Z,12.88
2018-12-06T03:20:59.515Z,16.82
2018-12-06T03:21:37.389Z,17.70
2018-12-06T03:22:16.455Z,16.93
2018-12-06T03:22:54.530Z,16.85
2018-12-06T03:23:32.676Z,15.25
2018-12-06T03:24:10.668Z,26.48
2018-12-06T03:24:48.649Z,20.57
2018-12-06T03:25:28.548Z,15.72
2018-12-06T03:26:06.477Z,24.45
2018-12-06T03:26:44.638Z,15.40
2018-12-06T03:27:23.180Z,18.67
2018-12-06T03:28:01.958Z,17.57
2018-12-06T03:28:40.919Z,25.03
2018-12-06T03:29:20.495Z,16.00
2018-12-06T03:29:58.497Z,18.00
2018-12-06T03:30:36.681Z,15.85
2018-12-06T03:31:14.623Z,15.40
2018-12-06T03:31:52.482Z,11.78
2018-12-06T03:32:30.325Z,17.65
2018-12-06T03:33:11.352Z,14.43
2018-12-06T03:33:50.171Z,17.92
2018-12-06T03:34:28.057Z,17.00
2018-12-06T03:35:07.236Z,13.18
2018-12-06T03:35:45.164Z,21.10
2018-12-06T03:36:23.130Z,21.45
2018-12-06T03:37:02.053Z,13.62
2018-12-06T03:37:40.890Z,16.02
2018-12-06T03:38:18.969Z,19.02
2018-12-06T03:38:56.935Z,14.85
2018-12-06T03:39:35.008Z,17.60
2018-12-06T03:40:13.734Z,17.92
2018-12-06T03:40:51.637Z,15.32
2018-12-06T03:41:29.572Z,13.30
2018-12-06T03:42:07.619Z,16.87
2018-12-06T03:42:46.129Z,19.10
2018-12-06T03:43:24.147Z,13.85
2018-12-06T03:44:03.205Z,13.65
2018-12-06T03:44:41.300Z,13.20
2018-12-06T03:45:19.465Z,12.25
2018-12-06T03:45:57.282Z,13.22
2018-12-06T03:46:35.295Z,17.37
2018-12-06T03:47:14.678Z,17.50
2018-12-06T03:47:53.725Z,16.23
2018-12-06T03:48:31.578Z,14.43
2018-12-06T03:49:09.512Z,13.20
2018-12-06T03:49:47.455Z,11.35
2018-12-06T03:50:25.266Z,15.28
2018-12-06T03:51:05.304Z,16.02
2018-12-06T03:51:43.230Z,14.45
2018-12-06T03:52:22.141Z,15.72
2018-12-06T03:53:00.082Z,16.35
2018-12-06T03:53:38.729Z,19.02
2018-12-06T03:54:16.675Z,19.07
2018-12-06T03:54:54.639Z,16.93
2018-12-06T03:55:32.562Z,18.50
2018-12-06T03:56:11.572Z,13.95
2018-12-06T03:56:49.602Z,22.93
2018-12-06T03:57:27.645Z,16.32
2018-12-06T03:58:06.668Z,11.78
2018-12-06T03:58:44.718Z,18.77
2018-12-06T03:59:22.590Z,12.05
2018-12-06T04:00:01.922Z,17.95
2018-12-06T04:00:39.734Z,15.17
2018-12-06T04:01:17.624Z,18.95
2018-12-06T04:01:55.677Z,17.95
2018-12-06T04:02:33.644Z,15.47
2018-12-06T04:03:11.625Z,17.32
2018-12-06T04:03:49.596Z,19.02
2018-12-06T04:04:29.044Z,14.30
2018-12-06T04:05:08.009Z,15.53
2018-12-06T04:05:46.051Z,17.40
2018-12-06T04:06:23.982Z,16.30
2018-12-06T04:07:01.942Z,13.50
2018-12-06T04:07:40.754Z,14.83
2018-12-06T04:08:18.737Z,17.20
2018-12-06T04:08:57.642Z,14.35
2018-12-06T04:09:35.634Z,15.93
2018-12-06T04:10:14.550Z,13.05
2018-12-06T04:10:52.515Z,12.80
2018-12-06T04:11:30.508Z,11.20
2018-12-06T04:12:08.451Z,17.60
2018-12-06T04:12:46.540Z,14.50
2018-12-06T04:13:24.419Z,15.63
2018-12-06T04:14:03.485Z,18.92
2018-12-06T04:14:42.617Z,12.25
2018-12-06T04:15:20.447Z,16.23
2018-12-06T04:15:58.427Z,21.05
2018-12-06T04:16:36.486Z,11.93
2018-12-06T04:17:17.493Z,13.85
2018-12-06T04:17:55.585Z,16.52
2018-12-06T04:18:33.590Z,10.15
2018-12-06T04:19:11.604Z,12.18
2018-12-06T04:19:49.496Z,9.90
2018-12-06T04:20:27.424Z,12.53
2018-12-06T04:21:06.448Z,8.23
2018-12-06T04:21:45.519Z,12.20
2018-12-06T04:22:23.440Z,10.78
2018-12-06T04:23:02.270Z,10.85
2018-12-06T04:23:40.083Z,9.08
2018-12-06T04:24:18.782Z,9.30
2018-12-06T04:24:56.590Z,10.35
2018-12-06T04:25:34.618Z,7.85
2018-12-06T04:26:12.909Z,8.63
2018-12-06T04:26:50.917Z,8.75
2018-12-06T04:27:28.827Z,10.58
2018-12-06T04:28:06.681Z,13.78
2018-12-06T04:28:44.634Z,8.93
2018-12-06T04:29:22.487Z,7.20
2018-12-06T04:30:00.469Z,8.30
2018-12-06T04:30:38.590Z,8.63
2018-12-06T04:31:17.212Z,7.50
2018-12-06T04:31:56.105Z,6.72
2018-12-06T04:32:34.012Z,8.97
2018-12-06T04:33:13.899Z,11.63
2018-12-06T04:33:51.809Z,8.20
2018-12-06T04:34:29.765Z,9.03
2018-12-06T04:35:08.675Z,11.68
2018-12-06T04:35:46.624Z,7.45
2018-12-06T04:36:24.597Z,9.05
2018-12-06T04:37:02.600Z,9.78
2018-12-06T04:37:41.190Z,8.90
2018-12-06T04:38:20.197Z,8.18
2018-12-06T04:38:58.437Z,8.05
2018-12-06T04:39:36.483Z,7.95
2018-12-06T04:40:14.652Z,7.42
2018-12-06T04:40:52.597Z,10.23
2018-12-06T04:41:30.566Z,8.65
2018-12-06T04:42:08.510Z,7.70
2018-12-06T04:42:46.511Z,8.90
2018-12-06T04:43:27.157Z,9.28
2018-12-06T04:44:05.116Z,8.55
2018-12-06T04:44:43.124Z,11.07
2018-12-06T04:45:21.042Z,9.45
2018-12-06T04:45:58.968Z,8.73
2018-12-06T04:46:36.915Z,7.50
2018-12-06T04:47:16.702Z,8.35
2018-12-06T04:47:54.735Z,7.17
2018-12-06T04:48:33.724Z,7.28
2018-12-06T04:49:11.777Z,7.47
2018-12-06T04:49:49.777Z,7.20
2018-12-06T04:50:30.338Z,7.05
2018-12-06T04:51:08.225Z,6.72
2018-12-06T04:52:01.810Z,6.40
2018-12-06T04:52:40.696Z,7.57
2018-12-06T04:53:19.637Z,8.85
2018-12-06T04:53:59.100Z,10.10
2018-12-06T04:54:37.027Z,7.10
2018-12-06T04:55:15.815Z,7.78
2018-12-06T04:55:53.873Z,13.73
2018-12-06T04:56:32.139Z,9.43
2018-12-06T04:57:10.220Z,9.80
2018-12-06T04:57:48.116Z,6.60
2018-12-06T04:58:26.445Z,8.38
2018-12-06T04:59:05.274Z,7.97
2018-12-06T04:59:43.142Z,8.00
2018-12-06T05:00:21.774Z,7.60
2018-12-06T05:00:59.740Z,11.10
2018-12-06T05:01:37.722Z,7.75
2018-12-06T05:02:15.552Z,8.48
2018-12-06T05:02:53.349Z,10.30
2018-12-06T05:03:31.303Z,8.33
2018-12-06T05:04:10.230Z,9.08
2018-12-06T05:04:49.175Z,10.23
2018-12-06T05:05:27.034Z,9.80
2018-12-06T05:06:06.320Z,10.82
2018-12-06T05:06:44.400Z,8.20
2018-12-06T05:07:23.630Z,8.53
2018-12-06T05:08:01.553Z,10.32
2018-12-06T05:08:39.554Z,11.43
2018-12-06T05:09:18.726Z,7.95
2018-12-06T05:09:56.710Z,8.58
2018-12-06T05:10:34.654Z,8.73
2018-12-06T05:11:12.588Z,9.03
2018-12-06T05:11:50.541Z,9.25
2018-12-06T05:12:28.341Z,9.18
2018-12-06T05:13:06.279Z,10.95
2018-12-06T05:13:44.768Z,8.08
2018-12-06T05:14:23.343Z,11.78
2018-12-06T05:15:01.376Z,10.93
2018-12-06T05:15:39.216Z,8.05
2018-12-06T05:16:18.231Z,10.60
2018-12-06T05:16:56.223Z,10.72
2018-12-06T05:17:35.375Z,9.73
2018-12-06T05:18:16.647Z,8.70
2018-12-06T05:18:54.870Z,8.25
2018-12-06T05:19:32.705Z,10.68
2018-12-06T05:20:10.574Z,9.08
2018-12-06T05:20:49.009Z,8.98
2018-12-06T05:21:26.844Z,8.80
2018-12-06T05:22:05.829Z,12.10
2018-12-06T05:22:43.993Z,10.60
2018-12-06T05:23:22.831Z,11.45
2018-12-06T05:24:00.981Z,12.68
2018-12-06T05:24:38.949Z,12.33
2018-12-06T05:25:16.849Z,13.48
2018-12-06T05:25:55.583Z,12.80
2018-12-06T05:26:33.859Z,10.53
2018-12-06T05:27:11.813Z,11.78
2018-12-06T05:27:49.844Z,10.23
2018-12-06T05:28:27.711Z,12.60
2018-12-06T05:29:05.528Z,12.98
2018-12-06T05:29:43.436Z,11.88
2018-12-06T05:30:21.381Z,11.30
2018-12-06T05:30:59.594Z,10.65
2018-12-06T05:31:37.434Z,9.98
2018-12-06T05:32:15.426Z,13.43
2018-12-06T05:32:53.329Z,9.88
2018-12-06T05:33:32.347Z,9.65
2018-12-06T05:34:10.185Z,13.35
2018-12-06T05:34:48.082Z,11.50
2018-12-06T05:35:27.368Z,14.43
2018-12-06T05:36:06.733Z,11.85
2018-12-06T05:36:44.706Z,10.53
2018-12-06T05:37:22.693Z,12.05
2018-12-06T05:38:00.565Z,10.43
2018-12-06T05:38:39.214Z,8.83
2018-12-06T05:39:17.146Z,9.73
2018-12-06T05:39:55.175Z,9.00
2018-12-06T05:40:33.908Z,8.95
2018-12-06T05:41:11.835Z,9.10
2018-12-06T05:41:50.603Z,10.28
2018-12-06T05:42:28.591Z,9.98
2018-12-06T05:43:06.579Z,12.93
2018-12-06T05:43:45.506Z,9.55
2018-12-06T05:44:23.401Z,10.55
2018-12-06T05:45:01.434Z,9.60
2018-12-06T05:45:39.435Z,9.10
2018-12-06T05:46:18.229Z,10.28
2018-12-06T05:46:57.078Z,11.48
2018-12-06T05:47:35.102Z,8.28
2018-12-06T05:48:14.306Z,9.73
2018-12-06T05:48:52.353Z,9.08
2018-12-06T05:49:30.348Z,13.83
2018-12-06T05:50:09.644Z,10.65
2018-12-06T05:50:47.446Z,8.63
2018-12-06T05:51:25.495Z,8.77
2018-12-06T05:52:04.392Z,8.60
2018-12-06T05:52:46.516Z,10.53
2018-12-06T05:53:24.570Z,8.45
2018-12-06T05:54:02.458Z,8.93
2018-12-06T05:54:40.463Z,9.07
2018-12-06T05:55:18.320Z,8.93
2018-12-06T05:55:56.387Z,7.42
2018-12-06T05:56:34.299Z,7.30
2018-12-06T05:57:12.266Z,7.72
2018-12-06T05:57:50.883Z,11.40
2018-12-06T05:58:29.018Z,10.70
2018-12-06T05:59:07.079Z,11.05
2018-12-06T05:59:45.864Z,7.50
2018-12-06T06:00:23.694Z,10.10
2018-12-06T06:01:01.716Z,9.85
2018-12-06T06:01:39.562Z,9.63
2018-12-06T06:02:17.389Z,8.65
2018-12-06T06:02:55.332Z,7.20
2018-12-06T06:03:33.329Z,10.70
2018-12-06T06:04:11.299Z,11.22
2018-12-06T06:04:50.106Z,7.53
2018-12-06T06:05:30.179Z,9.85
2018-12-06T06:06:08.188Z,13.98
2018-12-06T06:06:46.621Z,9.83
2018-12-06T06:07:25.020Z,10.85
2018-12-06T06:08:03.106Z,7.17
2018-12-06T06:08:40.989Z,9.90
2018-12-06T06:09:18.887Z,8.18
2018-12-06T06:09:57.728Z,11.93
2018-12-06T06:10:35.633Z,7.90
2018-12-06T06:11:15.550Z,14.45
2018-12-06T06:11:53.346Z,8.43
2018-12-06T06:12:32.134Z,9.33
2018-12-06T06:13:10.082Z,8.55
2018-12-06T06:13:48.124Z,10.60
2018-12-06T06:14:26.447Z,11.18
2018-12-06T06:15:04.466Z,9.50
2018-12-06T06:15:42.433Z,11.25
2018-12-06T06:16:20.932Z,10.43
2018-12-06T06:16:58.986Z,9.75
2018-12-06T06:17:36.979Z,11.28
2018-12-06T06:18:14.853Z,10.63
2018-12-06T06:18:52.915Z,10.35
2018-12-06T06:19:30.861Z,9.18
2018-12-06T06:20:09.591Z,8.28
2018-12-06T06:20:47.513Z,11.18
2018-12-06T06:21:25.454Z,12.00
2018-12-06T06:22:03.444Z,14.78
2018-12-06T06:22:42.780Z,8.65
2018-12-06T06:23:20.815Z,12.55
2018-12-06T06:23:58.763Z,9.60
2018-12-06T06:24:36.606Z,9.90
2018-12-06T06:25:14.667Z,17.65
2018-12-06T06:25:52.571Z,10.72
2018-12-06T06:26:30.535Z,12.45
2018-12-06T06:27:09.136Z,13.40
2018-12-06T06:27:47.181Z,10.03
2018-12-06T06:28:25.197Z,12.53
2018-12-06T06:29:03.142Z,11.80
2018-12-06T06:29:41.999Z,13.35
2018-12-06T06:30:19.858Z,10.70
2018-12-06T06:30:57.716Z,8.75
2018-12-06T06:31:35.854Z,10.00
2018-12-06T06:32:14.643Z,11.20
2018-12-06T06:32:52.699Z,8.35
2018-12-06T06:33:31.585Z,11.40
2018-12-06T06:34:09.504Z,9.03
2018-12-06T06:34:47.859Z,10.32
2018-12-06T06:35:25.850Z,11.40
2018-12-06T06:36:04.786Z,9.70
2018-12-06T06:36:43.449Z,8.73
2018-12-06T06:37:21.331Z,8.53
2018-12-06T06:37:59.205Z,14.10
2018-12-06T06:38:37.921Z,11.73
2018-12-06T06:39:15.922Z,11.05
2018-12-06T06:39:54.794Z,14.73
2018-12-06T06:40:32.800Z,15.60
2018-12-06T06:41:10.793Z,14.13
2018-12-06T06:41:48.752Z,11.35
2018-12-06T06:42:26.691Z,16.00
2018-12-06T06:43:05.576Z,9.60
2018-12-06T06:43:43.532Z,10.48
2018-12-06T06:44:21.853Z,14.60
2018-12-06T06:44:59.739Z,13.28
2018-12-06T06:45:37.783Z,8.93
2018-12-06T06:46:15.720Z,7.50
2018-12-06T06:46:53.605Z,11.70
2018-12-06T06:47:32.090Z,14.20
2018-12-06T06:48:10.213Z,14.83
2018-12-06T06:48:48.570Z,11.22
2018-12-06T06:49:27.431Z,12.40
2018-12-06T06:50:05.383Z,10.95
2018-12-06T06:50:43.333Z,11.97
2018-12-06T06:51:21.269Z,14.75
2018-12-06T06:51:59.213Z,10.47
2018-12-06T06:52:37.083Z,10.70
2018-12-06T06:53:15.319Z,10.72
2018-12-06T06:53:53.734Z,7.40
2018-12-06T06:54:32.780Z,11.33
2018-12-06T06:55:10.814Z,16.02
2018-12-06T06:55:48.857Z,8.33
2018-12-06T06:56:26.804Z,16.40
2018-12-06T06:57:04.854Z,15.45
2018-12-06T06:57:42.813Z,8.97
2018-12-06T06:58:20.719Z,15.13
2018-12-06T06:58:58.715Z,9.70
2018-12-06T06:59:36.677Z,9.70
2018-12-06T07:00:15.592Z,13.13
2018-12-06T07:00:53.641Z,8.75
2018-12-06T07:01:31.783Z,18.17
2018-12-06T07:02:09.755Z,10.53
2018-12-06T07:02:47.676Z,12.40
2018-12-06T07:03:26.061Z,14.18
2018-12-06T07:04:05.250Z,14.43
2018-12-06T07:04:43.253Z,14.58
2018-12-06T07:05:21.190Z,10.13
2018-12-06T07:06:01.606Z,10.37
2018-12-06T07:06:39.563Z,13.57
2018-12-06T07:07:17.516Z,15.95
2018-12-06T07:07:55.416Z,10.28
2018-12-06T07:08:33.394Z,9.78
2018-12-06T07:09:12.038Z,16.00
2018-12-06T07:09:50.868Z,6.25
2018-12-06T07:10:31.556Z,7.05
2018-12-06T07:11:09.550Z,7.62
2018-12-06T07:11:47.438Z,10.05
2018-12-06T07:12:25.515Z,6.65
2018-12-06T07:13:03.638Z,11.65
2018-12-06T07:13:41.667Z,7.90
2018-12-06T07:14:19.558Z,5.97
2018-12-06T07:14:57.696Z,8.15
2018-12-06T07:15:35.587Z,6.83
2018-12-06T07:16:14.341Z,8.50
2018-12-06T07:16:53.309Z,11.95
2018-12-06T07:17:31.306Z,11.25
2018-12-06T07:18:09.298Z,19.77
2018-12-06T07:19:30.975Z,15.80
2018-12-06T07:20:09.314Z,5.12
2018-12-06T07:20:47.307Z,7.25
2018-12-06T07:21:25.218Z,5.83
2018-12-06T07:22:03.136Z,9.25
2018-12-06T07:22:41.041Z,5.27
2018-12-06T07:23:19.382Z,7.60
2018-12-06T07:23:57.518Z,9.43
2018-12-06T07:24:35.487Z,9.83
2018-12-06T07:25:13.422Z,7.30
2018-12-06T07:25:51.639Z,10.68
2018-12-06T07:26:29.585Z,8.80
2018-12-06T07:27:07.558Z,11.38
2018-12-06T07:27:46.631Z,9.40
2018-12-06T07:28:24.529Z,10.65
2018-12-06T07:29:04.375Z,6.92
2018-12-06T07:29:42.276Z,5.50
2018-12-06T07:30:20.310Z,4.90
2018-12-06T07:30:59.128Z,2.60
2018-12-06T07:31:37.110Z,2.85
2018-12-06T07:32:15.878Z,2.80
2018-12-06T07:32:53.897Z,5.45
2018-12-06T07:33:31.705Z,3.33
2018-12-06T07:34:09.591Z,5.62
2018-12-06T07:34:47.535Z,2.33
2018-12-06T07:35:26.230Z,7.78
2018-12-06T07:36:04.251Z,3.67
2018-12-06T07:36:42.274Z,4.53
2018-12-06T07:37:20.188Z,3.47
2018-12-06T07:37:58.070Z,3.45
2018-12-06T07:38:36.086Z,3.77
2018-12-06T07:39:14.102Z,4.58
2018-12-06T07:39:52.855Z,2.12
2018-12-06T07:40:30.691Z,4.45
2018-12-06T07:41:08.569Z,2.37
2018-12-06T07:41:46.653Z,1.00
2018-12-06T07:42:24.712Z,3.83
2018-12-06T07:43:03.871Z,3.15
2018-12-06T07:43:42.679Z,3.35
2018-12-06T07:44:20.675Z,1.75
2018-12-06T07:44:58.906Z,2.77
2018-12-06T07:45:37.698Z,1.70
2018-12-06T07:46:15.639Z,1.37
2018-12-06T07:46:53.620Z,2.55
2018-12-06T07:47:31.634Z,3.12
2018-12-06T07:48:09.526Z,2.00
2018-12-06T07:48:47.413Z,2.55
2018-12-06T07:49:26.164Z,1.27
2018-12-06T07:50:04.134Z,3.70
2018-12-06T07:50:42.218Z,3.27
2018-12-06T07:51:20.156Z,3.05
2018-12-06T07:51:58.202Z,2.87
2018-12-06T07:52:36.070Z,4.57
2018-12-06T07:53:13.924Z,4.10
2018-12-06T07:53:51.995Z,1.67
2018-12-06T07:54:29.987Z,1.72
2018-12-06T07:55:07.863Z,4.80
2018-12-06T07:55:45.892Z,4.25
2018-12-06T07:56:23.920Z,3.70
2018-12-06T07:57:01.927Z,2.10
2018-12-06T07:57:39.904Z,5.08
2018-12-06T07:58:17.886Z,9.68
2018-12-06T07:58:55.894Z,5.53
2018-12-06T07:59:33.940Z,4.65
2018-12-06T08:00:12.551Z,6.47
2018-12-06T08:00:50.520Z,3.87
2018-12-06T08:01:28.454Z,3.77
2018-12-06T08:02:06.335Z,4.20
2018-12-06T08:02:44.493Z,1.30
2018-12-06T08:03:22.422Z,3.17
2018-12-06T08:04:00.411Z,3.77
2018-12-06T08:04:38.290Z,1.70
2018-12-06T08:05:16.160Z,4.12
2018-12-06T08:05:53.996Z,7.72
2018-12-06T08:06:31.964Z,3.35
2018-12-06T08:07:09.846Z,5.55
2018-12-06T08:07:47.899Z,5.22
2018-12-06T08:08:25.950Z,3.42
2018-12-06T08:09:04.105Z,4.70
2018-12-06T08:09:42.074Z,4.47
2018-12-06T08:10:20.300Z,1.82
2018-12-06T08:10:59.032Z,4.65
2018-12-06T08:11:38.567Z,3.42
2018-12-06T08:14:09.820Z,2.47
2018-12-06T08:14:47.752Z,3.65
2018-12-06T08:15:25.683Z,5.17
2018-12-06T08:16:04.606Z,2.45
2018-12-06T08:16:42.412Z,2.30
2018-12-06T08:17:22.264Z,3.12
2018-12-06T08:18:02.802Z,2.05
2018-12-06T08:18:41.898Z,3.30
2018-12-06T08:19:21.704Z,5.42
2018-12-06T08:19:59.611Z,3.17
2018-12-06T08:20:37.645Z,3.60
2018-12-06T08:21:16.931Z,4.55
2018-12-06T08:21:54.781Z,4.20
2018-12-06T08:22:37.333Z,2.20
2018-12-06T08:23:15.283Z,2.50
2018-12-06T08:23:53.253Z,4.10
2018-12-06T08:24:31.180Z,3.22